Time;durP1;ratioP1;P1;durP2;ratioP2;P2;SDS_P1;SDS_P2;PMS_P1;PMS_P2;Temp;Humidity;BMP_temperature;BMP_pressure;BME280_temperature;BME280_humidity;BME280_pressure;Samples;Min_cycle;Max_cycle;Signal;HPM_P1;HPM_P2
2024/03/07 00:00:31;;;;;;;0.40;0.40;;;;;;;9.34;71.66;96994.66;4963399;28;20055;-59
2024/03/07 00:02:58;;;;;;;0.45;0.45;;;;;;;9.34;72.05;96987.16;4963082;28;20049;-58
2024/03/07 00:05:26;;;;;;;0.40;0.40;;;;;;;9.32;71.47;96992.25;4963331;28;20160;-60
2024/03/07 00:07:54;;;;;;;0.50;0.50;;;;;;;9.46;71.24;96989.78;4963316;28;20142;-61
2024/03/07 00:10:21;;;;;;;0.45;0.45;;;;;;;9.50;71.71;96990.63;4963169;28;20054;-60
2024/03/07 00:12:48;;;;;;;0.40;0.40;;;;;;;9.15;71.80;96945.72;4963592;28;20051;-61
2024/03/07 00:15:15;;;;;;;0.40;0.40;;;;;;;9.35;72.06;96983.22;4962799;28;20059;-62
2024/03/07 00:17:42;;;;;;;0.40;0.40;;;;;;;9.30;71.88;96963.34;4963436;28;20536;-59
2024/03/07 00:20:14;;;;;;;0.47;0.47;;;;;;;9.11;71.97;96934.56;4962814;28;20047;-60
2024/03/07 00:22:43;;;;;;;0.50;0.50;;;;;;;9.33;72.01;96973.69;4963677;28;20054;-61
2024/03/07 00:25:11;;;;;;;0.40;0.40;;;;;;;9.34;72.04;96981.63;4963378;28;20055;-60
2024/03/07 00:27:38;;;;;;;0.40;0.40;;;;;;;9.22;71.95;96979.00;4963396;28;20076;-60
2024/03/07 00:30:13;;;;;;;0.40;0.40;;;;;;;8.78;72.65;96923.22;4962526;28;20079;-62
2024/03/07 00:32:40;;;;;;;0.50;0.50;;;;;;;9.20;72.80;96973.84;4963043;28;20054;-62
2024/03/07 00:35:10;;;;;;;0.40;0.40;;;;;;;9.13;72.67;96975.66;4962836;28;20142;-60
2024/03/07 00:37:37;;;;;;;0.40;0.40;;;;;;;8.40;72.85;96853.31;4962719;28;20082;-59
2024/03/07 00:40:06;;;;;;;0.40;0.40;;;;;;;8.70;73.53;96915.13;5044031;28;20061;-61
2024/03/07 00:42:33;;;;;;;0.45;0.45;;;;;;;9.18;73.69;96976.16;5029193;28;20054;-60
2024/03/07 00:45:01;;;;;;;0.40;0.40;;;;;;;9.18;73.31;96972.59;4962558;28;20517;-62
2024/03/07 00:47:28;;;;;;;0.40;0.40;;;;;;;9.25;73.65;96975.50;4962780;28;20063;-61
2024/03/07 00:49:55;;;;;;;0.40;0.40;;;;;;;9.07;72.82;96982.63;5028569;28;20509;-59
2024/03/07 00:52:22;;;;;;;0.50;0.50;;;;;;;9.13;73.23;96983.94;4962351;28;20047;-61
2024/03/07 00:54:49;;;;;;;0.50;0.50;;;;;;;9.09;73.72;96969.25;4963015;28;20074;-60
2024/03/07 00:57:16;;;;;;;0.45;0.45;;;;;;;9.27;73.23;96969.63;4989890;28;20083;-62
2024/03/07 00:59:43;;;;;;;0.50;0.50;;;;;;;9.27;72.90;96988.97;5013833;28;20509;-60
2024/03/07 01:02:09;;;;;;;0.40;0.40;;;;;;;9.19;72.48;96957.63;5028848;28;20126;-60
2024/03/07 01:04:36;;;;;;;0.40;0.40;;;;;;;8.67;73.30;96871.66;5027716;28;20046;-62
2024/03/07 01:07:03;;;;;;;0.40;0.40;;;;;;;9.32;73.49;96967.38;4962429;28;20054;-60
2024/03/07 01:09:30;;;;;;;0.40;0.40;;;;;;;9.12;73.02;96938.94;4962515;28;20054;-60
2024/03/07 01:11:59;;;;;;;0.45;0.45;;;;;;;9.21;73.54;96966.34;4962148;28;20495;-60
2024/03/07 01:14:27;;;;;;;0.40;0.40;;;;;;;9.11;74.39;96966.91;5026053;28;20056;-59
2024/03/07 01:16:54;;;;;;;0.43;0.43;;;;;;;9.19;74.77;97001.84;4971195;28;20426;-62
2024/03/07 01:19:21;;;;;;;0.40;0.40;;;;;;;9.04;75.37;96958.50;4960656;28;20513;-59
2024/03/07 01:21:48;;;;;;;0.50;0.50;;;;;;;9.17;74.98;96954.41;4961965;28;20055;-60
2024/03/07 01:24:20;;;;;;;0.43;0.43;;;;;;;9.02;75.89;96952.53;4962352;28;20509;-61
2024/03/07 01:26:47;;;;;;;0.40;0.40;;;;;;;9.04;75.57;96975.06;5028238;28;20055;-60
2024/03/07 01:29:15;;;;;;;0.50;0.50;;;;;;;8.80;76.10;96939.41;5045075;28;20054;-61
2024/03/07 01:31:42;;;;;;;0.40;0.40;;;;;;;8.90;76.16;96949.88;5027618;28;20093;-59
2024/03/07 01:34:09;;;;;;;0.40;0.40;;;;;;;8.55;75.68;96900.19;4962384;28;20521;-59
2024/03/07 01:36:36;;;;;;;0.43;0.43;;;;;;;8.89;76.72;96962.09;4962213;28;20087;-60
2024/03/07 01:39:03;;;;;;;0.40;0.40;;;;;;;8.65;76.58;96938.28;4962324;28;20059;-60
2024/03/07 01:41:30;;;;;;;0.40;0.40;;;;;;;8.81;77.27;96963.91;4962047;28;20066;-60
2024/03/07 01:43:58;;;;;;;0.45;0.45;;;;;;;9.01;76.11;96961.97;5027420;28;20517;-60
2024/03/07 01:46:25;;;;;;;0.40;0.40;;;;;;;9.05;75.63;96957.31;4961847;28;20536;-60
2024/03/07 01:48:51;;;;;;;0.40;0.40;;;;;;;8.52;75.78;96872.53;4962120;28;20326;-60
2024/03/07 01:51:21;;;;;;;0.40;0.40;;;;;;;8.70;77.48;96957.34;5044012;28;20058;-60
2024/03/07 01:53:48;;;;;;;0.50;0.50;;;;;;;8.87;76.51;96948.66;4961948;28;20130;-60
2024/03/07 01:56:16;;;;;;;0.40;0.40;;;;;;;8.79;76.31;96957.13;5027586;28;20163;-59
2024/03/07 01:58:46;;;;;;;0.47;0.47;;;;;;;8.77;77.36;96953.94;4961858;28;20058;-60
2024/03/07 02:01:15;;;;;;;0.40;0.40;;;;;;;8.82;76.68;96953.66;4961991;28;20042;-60
2024/03/07 02:03:42;;;;;;;0.40;0.40;;;;;;;8.87;76.97;96945.06;4961625;28;20053;-60
2024/03/07 02:06:11;;;;;;;0.40;0.40;;;;;;;8.71;77.15;96927.78;4961955;28;20051;-60
2024/03/07 02:08:39;;;;;;;0.40;0.40;;;;;;;8.05;77.14;96845.00;4962377;28;20051;-60
2024/03/07 02:11:06;;;;;;;0.40;0.40;;;;;;;8.43;77.19;96907.81;4961807;28;20452;-60
2024/03/07 02:13:33;;;;;;;0.40;0.40;;;;;;;7.89;77.78;96868.28;5026909;28;20428;-60
2024/03/07 02:15:59;;;;;;;0.40;0.40;;;;;;;8.46;77.65;96945.72;4961450;28;20054;-61
2024/03/07 02:18:26;;;;;;;0.40;0.40;;;;;;;8.36;78.58;96946.28;5027814;28;20081;-59
2024/03/07 02:20:54;;;;;;;0.40;0.40;;;;;;;8.47;77.75;96952.88;4946207;28;20151;-60
2024/03/07 02:23:21;;;;;;;0.40;0.40;;;;;;;7.90;77.78;96834.00;5007216;28;20055;-60
2024/03/07 02:25:48;;;;;;;0.40;0.40;;;;;;;8.62;77.09;96946.50;4941921;28;20086;-60
2024/03/07 02:28:15;;;;;;;0.40;0.40;;;;;;;8.69;76.96;96939.16;5007218;28;20623;-61
2024/03/07 02:30:42;;;;;;;0.40;0.40;;;;;;;8.53;76.82;96949.47;4941691;28;20066;-60
2024/03/07 02:33:09;;;;;;;0.40;0.40;;;;;;;8.09;77.05;96861.66;4941849;29;20120;-61
2024/03/07 02:35:36;;;;;;;0.40;0.40;;;;;;;8.29;76.42;96885.41;4942223;29;20504;-60
2024/03/07 02:38:05;;;;;;;0.40;0.40;;;;;;;7.85;76.50;96831.53;4942468;28;20138;-60
2024/03/07 02:40:32;;;;;;;0.40;0.40;;;;;;;8.51;76.63;96942.69;4943045;28;20510;-61
2024/03/07 02:42:59;;;;;;;0.40;0.40;;;;;;;8.39;76.98;96940.06;4942381;28;20058;-61
2024/03/07 02:45:26;;;;;;;0.40;0.40;;;;;;;8.36;77.14;96940.78;4942077;28;20445;-62
2024/03/07 02:47:53;;;;;;;0.47;0.47;;;;;;;7.49;76.98;96807.81;4942159;28;20047;-61
2024/03/07 02:50:24;;;;;;;0.40;0.40;;;;;;;8.18;76.97;96885.13;4941517;28;20075;-63
2024/03/07 02:52:52;;;;;;;0.40;0.40;;;;;;;8.53;76.82;96952.22;4941725;28;20075;-62
2024/03/07 02:55:20;;;;;;;0.40;0.40;;;;;;;8.10;78.67;96954.28;5006579;28;20055;-60
2024/03/07 02:57:47;;;;;;;0.40;0.40;;;;;;;7.92;80.48;96959.34;4942167;28;20055;-61
2024/03/07 03:00:20;;;;;;;0.40;0.40;;;;;;;7.87;80.58;96951.34;4943230;28;20053;-60
2024/03/07 03:02:49;;;;;;;0.40;0.40;;;;;;;7.23;82.43;96877.22;4961535;28;20051;-60
2024/03/07 03:05:18;;;;;;;0.40;0.40;;;;;;;7.72;81.66;96944.66;5029863;28;20058;-60
2024/03/07 03:07:52;;;;;;;0.40;0.40;;;;;;;7.41;83.12;96941.06;5030769;28;20487;-59
2024/03/07 03:10:28;;;;;;;0.40;0.40;;;;;;;7.39;83.13;96944.16;4964215;28;20243;-60
2024/03/07 03:13:00;;;;;;;0.38;0.38;;;;;;;7.03;85.84;96938.81;4964433;28;20061;-60
2024/03/07 03:15:28;;;;;;;0.30;0.30;;;;;;;7.22;86.32;96940.91;4964715;28;20070;-59
2024/03/07 03:17:59;;;;;;;0.40;0.40;;;;;;;6.79;84.93;96845.31;5031242;28;20138;-60
2024/03/07 03:20:38;;;;;;;0.40;0.40;;;;;;;7.02;86.74;96936.38;4964216;28;20506;-60
2024/03/07 03:23:06;;;;;;;0.40;0.40;;;;;;;7.35;86.42;96946.00;4964161;28;20058;-61
2024/03/07 03:25:48;;;;;;;0.40;0.40;;;;;;;7.65;85.09;96947.22;4963855;28;20145;-61
2024/03/07 03:28:16;;;;;;;0.40;0.40;;;;;;;7.63;84.35;96952.28;5030123;28;20144;-60
2024/03/07 03:30:43;;;;;;;0.40;0.40;;;;;;;7.51;83.77;96900.00;5029982;28;20141;-62
2024/03/07 03:33:11;;;;;;;0.40;0.40;;;;;;;6.93;85.64;96884.25;5030001;28;20873;-60
2024/03/07 03:35:38;;;;;;;0.40;0.40;;;;;;;7.22;86.53;96946.44;4963803;28;20061;-60
2024/03/07 03:38:06;;;;;;;0.40;0.40;;;;;;;6.61;88.59;96870.72;4964056;28;20051;-60
2024/03/07 03:40:34;;;;;;;0.30;0.30;;;;;;;6.93;87.75;96878.72;4963740;28;20066;-60
2024/03/07 03:43:01;;;;;;;0.40;0.40;;;;;;;7.55;86.44;96953.28;4963746;28;20085;-60
2024/03/07 03:45:28;;;;;;;0.40;0.40;;;;;;;7.68;85.26;96949.28;4963490;28;20823;-60
2024/03/07 03:47:55;;;;;;;0.40;0.40;;;;;;;7.79;84.59;96951.50;4963341;28;20051;-60
2024/03/07 03:50:25;;;;;;;0.40;0.40;;;;;;;7.19;83.98;96837.75;4963726;28;20050;-60
2024/03/07 03:52:52;;;;;;;0.40;0.40;;;;;;;8.01;83.49;96942.63;4963903;28;20666;-60
2024/03/07 03:55:20;;;;;;;0.40;0.40;;;;;;;7.96;83.44;96948.41;4963565;28;20133;-60
2024/03/07 03:57:48;;;;;;;0.40;0.40;;;;;;;8.02;82.98;96953.31;4963784;28;20567;-60
2024/03/07 04:00:16;;;;;;;0.40;0.40;;;;;;;8.15;82.55;96945.72;4963650;28;20504;-59
2024/03/07 04:02:48;;;;;;;0.40;0.40;;;;;;;8.09;82.70;96950.75;5030229;28;20283;-59
2024/03/07 04:05:18;;;;;;;0.50;0.50;;;;;;;8.18;82.64;96945.00;4964074;28;20059;-59
2024/03/07 04:07:45;;;;;;;0.40;0.40;;;;;;;8.10;82.47;96954.28;4963649;28;20494;-60
2024/03/07 04:10:14;;;;;;;0.40;0.40;;;;;;;8.17;81.94;96948.94;4963476;28;20055;-60
2024/03/07 04:12:41;;;;;;;0.40;0.40;;;;;;;7.72;82.31;96866.66;4963337;28;20061;-61
2024/03/07 04:15:10;;;;;;;0.40;0.40;;;;;;;8.19;81.83;96952.16;4962872;28;20098;-60
2024/03/07 04:17:38;;;;;;;0.40;0.40;;;;;;;8.05;82.67;96947.06;5029291;28;20533;-60
2024/03/07 04:20:06;;;;;;;0.40;0.40;;;;;;;7.14;84.15;96840.78;4963686;28;20082;-59
2024/03/07 04:22:34;;;;;;;0.40;0.40;;;;;;;7.49;85.47;96940.88;5029356;28;20576;-59
2024/03/07 04:25:01;;;;;;;0.40;0.40;;;;;;;7.47;87.56;96959.75;4962794;28;20536;-59
2024/03/07 04:27:28;;;;;;;0.40;0.40;;;;;;;7.30;90.01;96957.28;4962953;28;20055;-60
2024/03/07 04:29:55;;;;;;;0.40;0.40;;;;;;;7.17;90.84;96950.25;4963017;28;20146;-58
2024/03/07 04:32:23;;;;;;;0.40;0.40;;;;;;;6.71;94.43;96953.59;4962874;28;20062;-59
2024/03/07 04:34:50;;;;;;;0.40;0.40;;;;;;;6.48;95.33;96949.72;4963185;28;20086;-59
2024/03/07 04:37:17;;;;;;;0.40;0.40;;;;;;;6.21;96.04;96881.72;4962683;28;20066;-59
2024/03/07 04:39:44;;;;;;;0.40;0.40;;;;;;;6.45;96.35;96933.91;4962617;28;20497;-59
2024/03/07 04:42:10;;;;;;;0.32;0.32;;;;;;;6.50;98.23;96952.13;4963433;28;20433;-59
2024/03/07 04:44:38;;;;;;;0.30;0.30;;;;;;;6.08;98.74;96913.09;5039374;28;20599;-59
2024/03/07 04:47:07;;;;;;;0.40;0.40;;;;;;;6.14;99.96;96895.22;5048471;28;20129;-59
2024/03/07 04:49:35;;;;;;;0.30;0.30;;;;;;;6.03;100.00;96899.59;4982263;28;20505;-58
2024/03/07 04:52:03;;;;;;;0.40;0.40;;;;;;;6.65;100.00;96955.00;5049155;28;20064;-59
2024/03/07 04:54:34;;;;;;;0.40;0.40;;;;;;;6.72;100.00;96943.41;4982709;28;20050;-59
2024/03/07 04:57:01;;;;;;;0.40;0.40;;;;;;;6.73;100.00;96945.00;5048319;28;20590;-61
2024/03/07 04:59:28;;;;;;;0.40;0.40;;;;;;;6.82;100.00;96940.94;4982112;28;20127;-59
2024/03/07 05:01:54;;;;;;;0.40;0.40;;;;;;;6.84;99.88;96949.66;4981863;28;20475;-61
2024/03/07 05:04:23;;;;;;;0.40;0.40;;;;;;;6.96;100.00;96946.88;4982370;28;20062;-61
2024/03/07 05:06:50;;;;;;;0.40;0.40;;;;;;;6.47;100.00;96887.59;4982444;28;20054;-59
2024/03/07 05:09:25;;;;;;;0.40;0.40;;;;;;;6.93;100.00;96952.25;4981661;28;20056;-59
2024/03/07 05:11:52;;;;;;;0.40;0.40;;;;;;;6.16;100.00;96822.22;4981459;28;20050;-59
2024/03/07 05:14:20;;;;;;;0.40;0.40;;;;;;;6.09;100.00;96903.69;4981038;28;20058;-58
2024/03/07 05:17:04;;;;;;;0.40;0.40;;;;;;;6.67;100.00;96957.41;4981716;28;20129;-60
2024/03/07 05:19:35;;;;;;;0.30;0.30;;;;;;;6.63;100.00;96954.53;4981739;28;20046;-58
2024/03/07 05:22:04;;;;;;;0.30;0.30;;;;;;;6.35;100.00;96928.91;4981655;28;20078;-58
2024/03/07 05:24:33;;;;;;;0.38;0.38;;;;;;;6.38;100.00;96960.41;5047972;28;20046;-57
2024/03/07 05:27:00;;;;;;;0.30;0.30;;;;;;;6.57;100.00;96955.91;4981033;28;20046;-58
2024/03/07 05:29:28;;;;;;;0.30;0.30;;;;;;;6.66;100.00;96955.78;5048267;28;20513;-59
2024/03/07 05:31:54;;;;;;;0.40;0.40;;;;;;;6.55;100.00;96962.91;5048047;28;20055;-58
2024/03/07 05:34:23;;;;;;;0.30;0.30;;;;;;;5.91;100.00;96863.88;5047840;28;20043;-59
2024/03/07 05:36:50;;;;;;;0.30;0.30;;;;;;;6.18;100.00;96956.63;4976970;28;20054;-58
2024/03/07 05:39:18;;;;;;;0.40;0.40;;;;;;;6.03;100.00;96951.81;4978835;28;20089;-60
2024/03/07 05:41:45;;;;;;;0.30;0.30;;;;;;;6.18;100.00;96959.38;4979875;28;20053;-58
2024/03/07 05:44:13;;;;;;;0.30;0.30;;;;;;;6.23;100.00;96959.16;4979369;28;20046;-59
2024/03/07 05:46:45;;;;;;;0.30;0.30;;;;;;;5.48;100.00;96882.81;4980726;28;20103;-58
2024/03/07 05:49:13;;;;;;;0.30;0.30;;;;;;;5.51;100.00;96909.59;4981105;28;20507;-58
2024/03/07 05:51:44;;;;;;;0.30;0.30;;;;;;;5.55;100.00;96910.50;5047587;28;20129;-58
2024/03/07 05:54:12;;;;;;;0.30;0.30;;;;;;;5.38;100.00;96924.44;4981121;28;20577;-58
2024/03/07 05:56:40;;;;;;;0.30;0.30;;;;;;;5.67;100.00;96973.75;4980597;28;20046;-58
2024/03/07 05:59:11;;;;;;;0.30;0.30;;;;;;;5.67;100.00;96971.00;5047040;28;20069;-58
2024/03/07 06:01:39;;;;;;;0.30;0.30;;;;;;;5.74;100.00;96962.97;4980554;28;20061;-59
2024/03/07 06:04:06;;;;;;;0.30;0.30;;;;;;;5.61;100.00;96966.84;4979887;28;20077;-58
2024/03/07 06:06:35;;;;;;;0.30;0.30;;;;;;;5.63;100.00;96975.53;5045713;28;20061;-58
2024/03/07 06:09:07;;;;;;;0.30;0.30;;;;;;;5.59;100.00;96988.38;4979782;28;20401;-58
2024/03/07 06:11:35;;;;;;;0.30;0.30;;;;;;;5.55;100.00;96981.94;4979321;28;20058;-58
2024/03/07 06:14:03;;;;;;;0.30;0.30;;;;;;;5.44;100.00;96964.28;4979587;28;20112;-61
2024/03/07 06:16:38;;;;;;;0.30;0.30;;;;;;;5.13;100.00;96917.28;5047163;28;20805;-57
2024/03/07 06:19:07;;;;;;;0.35;0.35;;;;;;;5.46;100.00;96983.97;4980545;28;20054;-58
2024/03/07 06:21:41;;;;;;;0.30;0.30;;;;;;;5.18;100.00;96955.50;5045475;28;20050;-57
2024/03/07 06:24:10;;;;;;;0.30;0.30;;;;;;;5.31;100.00;96970.91;4980635;28;20123;-57
2024/03/07 06:26:59;;;;;;;0.30;0.30;;;;;;;5.31;100.00;96970.91;4980720;28;20057;-59
2024/03/07 06:29:29;;;;;;;0.30;0.30;;;;;;;4.77;100.00;96886.97;4980730;28;20061;-57
2024/03/07 06:31:57;;;;;;;0.30;0.30;;;;;;;5.31;100.00;96943.44;5046724;28;20061;-57
2024/03/07 06:34:24;;;;;;;0.30;0.30;;;;;;;5.05;100.00;96905.25;4981455;28;20118;-57
2024/03/07 06:36:51;;;;;;;0.30;0.30;;;;;;;5.54;100.00;96977.59;4980112;28;20054;-58
2024/03/07 06:39:21;;;;;;;0.30;0.30;;;;;;;5.64;100.00;96993.66;4979791;28;20135;-57
2024/03/07 06:41:48;;;;;;;0.30;0.30;;;;;;;5.47;100.00;96986.38;4980593;28;20082;-58
2024/03/07 06:44:17;;;;;;;0.30;0.30;;;;;;;4.36;100.00;96797.31;4980688;28;20135;-58
2024/03/07 06:46:45;;;;;;;0.30;0.30;;;;;;;5.31;100.00;96948.94;4980260;28;20046;-60
2024/03/07 06:49:12;;;;;;;0.30;0.30;;;;;;;5.49;100.00;96988.78;4980373;28;20465;-58
2024/03/07 06:51:39;;;;;;;0.30;0.30;;;;;;;5.64;100.00;96993.66;4980144;28;20421;-61
2024/03/07 06:54:06;;;;;;;0.40;0.40;;;;;;;5.75;100.00;96997.56;4980122;28;20058;-58
2024/03/07 06:56:33;;;;;;;0.30;0.30;;;;;;;3.65;100.00;96717.13;5046260;28;20057;-57
2024/03/07 06:59:04;;;;;;;0.30;0.30;;;;;;;5.35;100.00;97004.75;4977954;28;20058;-60
2024/03/07 07:01:31;;;;;;;0.30;0.30;;;;;;;5.61;100.00;97013.56;4977269;28;20184;-67
2024/03/07 07:04:03;;;;;;;0.30;0.30;;;;;;;3.15;100.00;96598.69;4978984;28;20050;-58
2024/03/07 07:06:31;;;;;;;0.30;0.30;;;;;;;5.86;100.00;97015.25;4978146;28;20080;-59
2024/03/07 07:08:58;;;;;;;0.38;0.38;;;;;;;6.01;100.00;97012.66;4975744;28;20481;-69
2024/03/07 07:11:27;;;;;;;0.30;0.30;;;;;;;5.79;100.00;96968.25;4970143;28;20119;-65
2024/03/07 07:13:59;;;;;;;0.32;0.32;;;;;;;4.76;100.00;96767.41;4967849;28;20065;-68
2024/03/07 07:16:27;;;;;;;0.30;0.30;;;;;;;6.28;100.00;97000.16;5045840;28;20654;-60
2024/03/07 07:18:55;;;;;;;0.30;0.30;;;;;;;5.92;100.00;97025.69;5031104;28;20069;-60
2024/03/07 07:21:22;;;;;;;0.30;0.30;;;;;;;4.85;100.00;96913.53;4975258;28;20068;-67
2024/03/07 07:23:48;;;;;;;0.40;0.40;;;;;;;5.30;100.00;96950.84;4982617;28;20115;-69
2024/03/07 07:26:15;;;;;;;0.40;0.40;;;;;;;5.72;100.00;97031.22;4979697;28;20481;-64
2024/03/07 07:28:42;;;;;;;0.30;0.30;;;;;;;5.49;100.00;97032.72;4977608;28;20558;-69
2024/03/07 07:31:09;;;;;;;0.30;0.30;;;;;;;5.46;100.00;97030.66;5038831;28;20505;-63
2024/03/07 07:33:36;;;;;;;0.30;0.30;;;;;;;5.35;100.00;97032.22;4977778;28;20058;-61
2024/03/07 07:36:03;;;;;;;0.30;0.30;;;;;;;5.42;100.00;97043.47;4996034;28;20053;-63
2024/03/07 07:38:31;;;;;;;0.30;0.30;;;;;;;5.43;100.00;97036.84;4978738;28;20065;-70
2024/03/07 07:40:58;;;;;;;0.30;0.30;;;;;;;5.21;100.00;97051.75;4978850;28;20061;-74
2024/03/07 07:43:39;;;;;;;0.28;0.28;;;;;;;5.34;100.00;97044.38;3783451;28;10001580;-61
2024/03/07 07:46:09;;;;;;;0.40;0.40;;;;;;;5.39;100.00;97044.94;3913128;28;10001499;-64
2024/03/07 07:48:36;;;;;;;0.30;0.30;;;;;;;4.71;100.00;96940.44;4991946;28;20062;-69
2024/03/07 07:51:05;;;;;;;0.30;0.30;;;;;;;5.34;100.00;97038.88;5049059;28;20128;-60
2024/03/07 07:53:32;;;;;;;0.28;0.28;;;;;;;5.21;100.00;97086.63;4981694;28;20142;-65
2024/03/07 07:56:05;;;;;;;0.30;0.30;;;;;;;5.17;100.00;97044.50;4980969;28;20085;-68
2024/03/07 07:58:35;;;;;;;0.30;0.30;;;;;;;5.32;100.00;97038.41;4982444;28;20054;-68
2024/03/07 08:01:02;;;;;;;0.30;0.30;;;;;;;5.57;100.00;97057.41;4981948;28;20046;-60
2024/03/07 08:03:29;;;;;;;0.30;0.30;;;;;;;5.66;100.00;97043.56;4981597;28;20050;-64
2024/03/07 08:05:56;;;;;;;0.30;0.30;;;;;;;5.53;100.00;97007.00;4978214;28;20058;-67
2024/03/07 08:08:23;;;;;;;0.30;0.30;;;;;;;5.61;100.00;97058.31;4968835;28;20101;-68
2024/03/07 08:10:50;;;;;;;0.30;0.30;;;;;;;5.37;100.00;97003.31;4977152;28;20062;-63
2024/03/07 08:13:17;;;;;;;0.30;0.30;;;;;;;5.93;100.00;97053.97;4977859;28;20092;-68
2024/03/07 08:15:44;;;;;;;0.32;0.32;;;;;;;6.34;100.00;97053.81;4962825;28;20112;-67
2024/03/07 08:18:11;;;;;;;0.30;0.30;;;;;;;6.15;100.00;97070.06;4962623;28;20069;-61
2024/03/07 08:20:40;;;;;;;0.40;0.40;;;;;;;6.51;100.00;97053.59;4974575;28;20051;-64
2024/03/07 08:23:09;;;;;;;0.40;0.40;;;;;;;5.65;100.00;96995.25;4977394;28;20058;-68
2024/03/07 08:25:39;;;;;;;0.30;0.30;;;;;;;5.44;100.00;96980.75;5045222;28;20582;-65
2024/03/07 08:28:06;;;;;;;0.30;0.30;;;;;;;5.96;100.00;97047.78;4996840;28;20051;-63
2024/03/07 08:30:34;;;;;;;0.30;0.30;;;;;;;6.27;100.00;97064.59;5029344;28;20051;-73
2024/03/07 08:33:05;;;;;;;0.32;0.32;;;;;;;6.25;100.00;97066.88;5005996;28;20054;-60
2024/03/07 08:35:33;;;;;;;0.40;0.40;;;;;;;5.88;100.00;97018.47;5065905;28;20141;-63
2024/03/07 08:38:01;;;;;;;0.40;0.40;;;;;;;6.42;100.00;97066.66;5083506;28;20051;-64
2024/03/07 08:40:35;;;;;;;0.40;0.40;;;;;;;6.48;100.00;97073.53;5083927;28;20056;-61
2024/03/07 08:43:03;;;;;;;0.30;0.30;;;;;;;5.65;100.00;96987.00;5034067;28;20054;-58
2024/03/07 08:45:33;;;;;;;0.40;0.40;;;;;;;6.03;100.00;97045.28;4981603;28;20050;-66
2024/03/07 08:48:04;;;;;;;0.30;0.30;;;;;;;6.45;100.00;97067.94;4981062;28;20054;-62
2024/03/07 08:50:33;;;;;;;0.30;0.30;;;;;;;6.36;100.00;97068.03;5044563;28;20056;-68
2024/03/07 08:53:01;;;;;;;0.30;0.30;;;;;;;6.29;100.00;97084.31;4978037;28;20607;-66
2024/03/07 08:55:28;;;;;;;0.40;0.40;;;;;;;5.95;100.00;97019.50;5047459;28;20153;-63
2024/03/07 08:57:55;;;;;;;0.30;0.30;;;;;;;5.83;100.00;97084.66;4980353;28;20061;-67
2024/03/07 09:00:23;;;;;;;0.40;0.40;;;;;;;5.82;100.00;97099.53;4980132;28;20133;-61
2024/03/07 09:02:53;;;;;;;0.30;0.30;;;;;;;5.49;100.00;97013.50;4979461;28;20714;-69
2024/03/07 09:05:21;;;;;;;0.30;0.30;;;;;;;6.08;100.00;97089.06;4980206;28;20057;-65
2024/03/07 09:07:50;;;;;;;0.30;0.30;;;;;;;6.20;100.00;97089.09;4981266;28;20133;-63
2024/03/07 09:10:17;;;;;;;0.32;0.32;;;;;;;3.78;100.00;96694.16;5046286;28;20046;-66
2024/03/07 09:12:45;;;;;;;0.30;0.30;;;;;;;6.17;100.00;97037.53;4978376;28;20065;-66
2024/03/07 09:15:12;;;;;;;0.30;0.30;;;;;;;6.48;100.00;97073.53;4993293;28;20070;-68
2024/03/07 09:17:39;;;;;;;0.30;0.30;;;;;;;6.16;100.00;96981.72;4980623;28;20046;-69
2024/03/07 09:20:08;;;;;;;0.40;0.40;;;;;;;6.46;100.00;97000.75;4981060;28;20054;-65
2024/03/07 09:22:37;;;;;;;0.40;0.40;;;;;;;5.98;100.00;97013.34;4979806;28;20069;-71
2024/03/07 09:25:04;;;;;;;0.30;0.30;;;;;;;6.71;100.00;97102.22;4980680;28;20111;-66
2024/03/07 09:27:31;;;;;;;0.40;0.40;;;;;;;6.09;100.00;97008.19;4979459;28;20436;-69
2024/03/07 09:29:58;;;;;;;0.40;0.40;;;;;;;6.57;100.00;97090.75;4980664;28;20070;-69
2024/03/07 09:32:25;;;;;;;0.38;0.38;;;;;;;6.79;100.00;97098.56;4975634;28;20051;-62
2024/03/07 09:34:52;;;;;;;0.30;0.30;;;;;;;6.28;100.00;97002.94;4961314;28;20065;-64
2024/03/07 09:37:21;;;;;;;0.40;0.40;;;;;;;6.81;100.00;97107.25;4978619;28;20463;-61
2024/03/07 09:39:49;;;;;;;0.32;0.32;;;;;;;6.82;100.00;97102.56;4961270;28;20051;-61
2024/03/07 09:42:17;;;;;;;0.40;0.40;;;;;;;6.78;100.00;97102.44;4962106;28;20050;-61
2024/03/07 09:44:48;;;;;;;0.35;0.35;;;;;;;6.53;100.00;97056.81;4980282;28;20540;-61
2024/03/07 09:47:15;;;;;;;0.40;0.40;;;;;;;6.83;100.00;97093.94;5046484;28;20516;-70
2024/03/07 09:49:42;;;;;;;0.40;0.40;;;;;;;4.39;100.00;96720.66;4966044;28;20139;-73
2024/03/07 09:52:15;;;;;;;0.40;0.40;;;;;;;6.48;100.00;97070.78;4974729;28;20062;-62
2024/03/07 09:54:42;;;;;;;0.40;0.40;;;;;;;6.92;100.00;97113.94;4980571;28;20065;-64
2024/03/07 09:57:10;;;;;;;0.30;0.30;;;;;;;6.88;100.00;97101.97;5047057;28;20046;-63
2024/03/07 09:59:40;;;;;;;0.30;0.30;;;;;;;6.87;100.00;97116.91;4980580;28;20046;-64
2024/03/07 10:02:09;;;;;;;0.40;0.40;;;;;;;5.90;100.00;96940.03;5046553;28;20480;-63
2024/03/07 10:04:49;;;;;;;0.40;0.40;;;;;;;6.92;100.00;97091.91;4980511;28;20054;-64
2024/03/07 10:07:18;;;;;;;0.40;0.40;;;;;;;6.94;100.00;97106.09;5046168;28;20535;-58
2024/03/07 10:09:45;;;;;;;0.40;0.40;;;;;;;6.55;100.00;97048.19;5046650;28;20081;-63
2024/03/07 10:12:15;;;;;;;0.30;0.30;;;;;;;6.96;100.00;97092.81;4980202;28;20062;-58
2024/03/07 10:14:57;;;;;;;0.40;0.40;;;;;;;7.04;100.00;97091.88;5046015;28;20153;-58
2024/03/07 10:17:27;;;;;;;0.40;0.40;;;;;;;6.96;100.00;97089.25;4980115;28;20111;-63
2024/03/07 10:19:54;;;;;;;0.40;0.40;;;;;;;6.92;100.00;97091.91;4980084;28;20050;-63
2024/03/07 10:22:21;;;;;;;0.40;0.40;;;;;;;6.35;100.00;96983.91;5045804;28;20161;-58
2024/03/07 10:24:53;;;;;;;0.35;0.35;;;;;;;5.43;100.00;96828.09;4980645;28;20055;-64
2024/03/07 10:27:23;;;;;;;0.40;0.40;;;;;;;7.14;100.00;97096.91;4980077;28;20482;-64
2024/03/07 10:29:53;;;;;;;0.38;0.38;;;;;;;7.31;100.00;97091.16;4994643;28;20068;-64
2024/03/07 10:32:23;;;;;;;0.38;0.38;;;;;;;7.28;100.00;97083.56;4979555;28;20058;-64
2024/03/07 10:34:52;;;;;;;0.40;0.40;;;;;;;7.06;100.00;97026.25;4978243;28;20066;-63
2024/03/07 10:37:24;;;;;;;0.40;0.40;;;;;;;6.73;100.00;97000.84;4979470;28;20060;-65
2024/03/07 10:39:51;;;;;;;0.38;0.38;;;;;;;7.30;100.00;97089.53;4979042;28;20061;-60
2024/03/07 10:42:21;;;;;;;0.40;0.40;;;;;;;6.33;100.00;96997.19;4978637;28;20042;-63
2024/03/07 10:44:49;;;;;;;0.40;0.40;;;;;;;7.40;100.00;97091.81;4960698;28;20559;-64
2024/03/07 10:47:18;;;;;;;0.30;0.30;;;;;;;7.35;100.00;97086.53;4960444;28;20425;-63
2024/03/07 10:49:58;;;;;;;0.40;0.40;;;;;;;7.04;100.00;97072.59;5026090;28;20051;-64
2024/03/07 10:52:40;;;;;;;0.40;0.40;;;;;;;6.77;100.00;97062.31;4960747;28;20054;-60
2024/03/07 10:55:09;;;;;;;0.40;0.40;;;;;;;7.34;100.00;97082.19;4979311;28;20566;-60
2024/03/07 10:57:43;;;;;;;0.32;0.32;;;;;;;7.52;100.00;97083.47;4980138;28;20060;-60
2024/03/07 11:00:35;;;;;;;0.40;0.40;;;;;;;7.16;100.00;97042.25;4979835;28;20053;-61
2024/03/07 11:02:59;;;;;;;0.43;0.43;;;;;;;7.34;100.00;97076.66;4979614;28;20054;-64
2024/03/07 11:05:29;;;;;;;0.40;0.40;;;;;;;6.90;100.00;97006.09;5045413;28;20054;-63
2024/03/07 11:08:04;;;;;;;0.30;0.30;;;;;;;6.97;100.00;96998.03;5045830;28;20078;-65
2024/03/07 11:10:32;;;;;;;0.50;0.50;;;;;;;7.21;100.00;97019.19;5045773;28;20051;-61
2024/03/07 11:13:00;;;;;;;0.40;0.40;;;;;;;7.18;100.00;97012.44;4978890;28;20062;-63
2024/03/07 11:15:28;;;;;;;0.40;0.40;;;;;;;7.57;100.00;97069.47;5045330;28;20520;-64
2024/03/07 11:17:55;;;;;;;0.30;0.30;;;;;;;7.77;100.00;97075.13;4979652;28;20053;-59
2024/03/07 11:20:23;;;;;;;0.32;0.32;;;;;;;7.56;100.00;97056.84;5045404;28;20123;-64
2024/03/07 11:22:53;;;;;;;0.40;0.40;;;;;;;7.73;100.00;97077.78;4978994;28;20058;-64
2024/03/07 11:25:22;;;;;;;0.40;0.40;;;;;;;7.60;99.88;97077.03;4981571;28;20047;-60
2024/03/07 11:27:55;;;;;;;0.40;0.40;;;;;;;7.59;100.00;97082.88;4981982;28;20050;-63
2024/03/07 11:30:23;;;;;;;0.45;0.45;;;;;;;7.65;100.00;97076.78;4983102;28;20061;-60
2024/03/07 11:32:54;;;;;;;0.40;0.40;;;;;;;7.53;100.00;97082.34;4982847;28;20058;-59
2024/03/07 11:35:32;;;;;;;0.40;0.40;;;;;;;7.42;100.00;97078.47;4982350;28;20517;-64
2024/03/07 11:37:59;;;;;;;0.40;0.40;;;;;;;7.46;100.00;97073.88;4982500;28;20058;-59
2024/03/07 11:40:26;;;;;;;0.40;0.40;;;;;;;7.50;100.00;97083.06;4982461;28;20543;-58
2024/03/07 11:42:56;;;;;;;0.40;0.40;;;;;;;7.16;100.00;97036.75;5048598;28;20058;-58